Create Custom Reports and Graphics: Custom Report

Kelseyville

Current Conditions

1/20/21 5:15 PM (-08:00)
Updated Every 15 Minutes
Temp 57.2 °F   0.2
RH 32 %   13
Dew Pt 27.6 °F   12.7
Wet Bulb 44.0 °F   3.2
Wind Dir N | 352 °
Wind Spd 1.1 mph   9.0
Wind Gust 2.2 mph
Solar Rad 17 W/m2   4
Leaf Wet 0.0 mins
BatVolt 13.4 V   0.1

Today & Yesterday

Kelseyville

1/20/21 5:15 PM (-08:00)
Updated Every 15 Minutes
Daily Max Temp 61.7 °F   1.2
Time of Max Temp 1545
Daily Min Temp 25.9 °F   19.2
Time of Min Temp 0639
Daily Max Wind 8.3 mph   31.6
Time of Max Wind 1125
Max Wind Dir NE | 40 °
Daily Rain 0.00 In
Daily ETo 0.050 in   0.083
Daily Leaf Wet Hrs 0.0 hrs
Yesterday's Max Temp 60.5 °F
Yesterday’s Min Temp 45.1 °F
Yesterday's Max Wind 39.9 mph
Yesterday's Rainfall 0.00 In
Yesterday's ETo 0.15 In
Leaf Wet Hrs Yest 0.0 Hours

Last 48 Hours

Kelseyville

Hourly Data | America/Los_Angeles
as of 1/20/21 5:24 PM PST
Date & Time Temp (°F) WindChill (°F) RH (%) Dew Pt (°F) Wet Bulb (°F) Wind Dir (°) Wind Spd (mph) Wind Gust (mph) Wind Gst Dir (°) Solar Rad (W/m2) Leaf Wet (mins) Latest Rain (In) Daily Rain (In) Daily Min Temp (°F) Daily Max Temp (°F) Daily ETo (in) Daily Leaf Wet Hrs (hrs)
1/20/21 - 1700 61.0 - 22 22.0 44.1 NE | 46 0.5 2.0 ENE | 77 93 0.0 0.00 0.00 25.9 61.7 0.050 0.0
1/20/21 - 1600 61.1 - 20 20.0 43.7 NE | 40 1.4 4.2 NNE | 21 221 0.0 0.00 0.00 25.9 61.7 0.050 0.0
1/20/21 - 1500 60.1 - 23 22.2 43.8 NNE | 32 2.6 4.8 NNE | 28 340 0.0 0.00 0.00 25.9 60.8 0.046 0.0
1/20/21 - 1400 57.9 - 25 22.5 42.9 NNE | 23 1.5 4.8 N | 1 425 0.0 0.00 0.00 25.9 59.4 0.038 0.0
1/20/21 - 1300 53.8 - 31 23.8 41.3 N | 5 2.0 5.5 N | 1 457 0.0 0.00 0.00 25.9 55.7 0.029 0.0
1/20/21 - 1200 50.4 - 42 28.2 41.0 N | 11 3.7 8.3 NE | 40 436 0.0 0.00 0.00 25.9 51.6 0.020 0.0
1/20/21 - 1100 47.8 - 39 23.9 38.3 NNE | 17 1.2 4.6 N | 5 366 0.0 0.00 0.00 25.9 49.9 0.011 0.0
1/20/21 - 1000 41.1 - 51 24.2 34.7 SSW | 204 1.7 4.2 S | 189 253 0.0 0.00 0.00 25.9 46.7 0.005 0.0
1/20/21 - 0900 30.9 - 76 24.0 28.4 SSW | 202 0.6 2.2 SW | 214 116 0.0 0.00 0.00 25.9 46.7 0.001 0.0
1/20/21 - 0800 26.5 - 82 21.6 24.8 S | 188 1.0 5.7 SSW | 198 9 0.0 0.00 0.00 25.9 46.7 0.000 0.0
1/20/21 - 0700 26.6 - 82 21.7 24.9 S | 171 0.5 3.5 WSW | 254 0 0.0 0.00 0.00 25.9 46.7 0.000 0.0
1/20/21 - 0600 27.5 - 79 22.0 25.6 SSW | 199 1.1 3.5 SE | 142 0 0.0 0.00 0.00 26.7 46.7 0.000 0.0
1/20/21 - 0500 29.2 - 75 22.3 26.8 SW | 216 0.9 3.7 NW | 326 0 0.0 0.00 0.00 27.3 46.7 0.000 0.0
1/20/21 - 0400 32.0 - 68 22.8 28.8 S | 186 2.1 6.4 S | 174 0 0.0 0.00 0.00 31.1 46.7 0.000 0.0
1/20/21 - 0300 34.0 - 65 23.2 30.2 SSW | 209 1.5 4.2 N | 350 0 0.0 0.00 0.00 31.6 46.7 0.000 0.0
1/20/21 - 0200 39.7 - 47 21.0 33.0 NNW | 336 1.7 6.6 NW | 316 0 0.0 0.00 0.00 37.6 46.7 0.000 0.0
1/20/21 - 0100 44.7 - 35 18.4 35.2 WSW | 237 2.4 6.6 WNW | 290 0 0.0 0.00 0.00 43.4 46.7 0.000 0.0
1/20/21 - 0000 49.9 48.3 28 18.2 38.0 E | 81 4.8 11.6 ENE | 57 0 0.0 0.00 0.00 45.1 60.5 0.147 0.0
1/19/21 - 2300 53.3 - 23 16.7 39.4 E | 85 9.4 20.0 ENE | 78 0 0.0 0.00 0.00 45.1 60.5 0.145 0.0
1/19/21 - 2200 53.3 - 24 17.2 39.5 E | 88 9.1 18.8 ENE | 74 0 0.0 0.00 0.00 45.1 60.5 0.142 0.0
1/19/21 - 2100 53.9 - 23 17.3 39.8 E | 85 7.1 16.7 ENE | 67 0 0.0 0.00 0.00 45.1 60.5 0.140 0.0
1/19/21 - 2000 50.7 - 25 15.8 37.8 E | 101 1.4 11.4 E | 80 0 0.0 0.00 0.00 45.1 60.5 0.137 0.0
1/19/21 - 1900 52.9 - 22 15.4 38.9 ESE | 113 3.6 10.7 ENE | 68 0 0.0 0.00 0.00 45.1 60.5 0.137 0.0
1/19/21 - 1800 55.2 - 21 16.2 40.2 ENE | 59 6.7 17.3 NNE | 28 5 0.0 0.00 0.00 45.1 60.5 0.136 0.0
1/19/21 - 1700 58.2 - 19 16.0 41.6 NE | 36 13.2 25.0 NNE | 29 92 0.0 0.00 0.00 45.1 60.5 0.133 0.0
1/19/21 - 1600 59.8 - 18 16.7 42.4 NE | 54 11.3 20.2 NE | 46 226 0.0 0.00 0.00 45.1 60.5 0.125 0.0
1/19/21 - 1500 60.1 - 17 15.4 42.3 NE | 48 15.1 26.5 NE | 46 344 0.0 0.00 0.00 45.1 60.5 0.114 0.0
1/19/21 - 1400 59.8 - 18 16.0 42.3 NE | 45 14.3 24.1 NE | 46 430 0.0 0.00 0.00 45.1 60.5 0.099 0.0
1/19/21 - 1300 58.7 - 18 14.8 41.5 NE | 44 15.3 30.9 NNE | 23 464 0.0 0.00 0.00 45.1 59.6 0.084 0.0
1/19/21 - 1200 57.0 - 18 14.4 40.7 NE | 38 15.2 31.4 NE | 35 446 0.0 0.00 0.00 45.1 57.8 0.068 0.0
1/19/21 - 1100 55.3 - 19 14.1 39.8 NE | 39 15.3 28.7 NE | 48 376 0.0 0.00 0.00 45.1 56.4 0.052 0.0
1/19/21 - 1000 53.0 - 21 14.1 38.7 NE | 38 14.9 27.2 ENE | 74 265 0.0 0.00 0.00 45.1 55.0 0.039 0.0
1/19/21 - 0900 49.6 45.3 26 15.7 37.3 NNE | 19 10.8 28.3 NE | 38 128 0.0 0.00 0.00 45.1 55.0 0.028 0.0
1/19/21 - 0800 46.7 43.7 30 17.1 36.0 NNE | 13 6.1 19.1 N | 7 6 0.0 0.00 0.00 45.1 55.0 0.021 0.0
1/19/21 - 0700 47.0 43.3 31 17.8 36.4 NNE | 13 7.7 17.8 N | 10 0 0.0 0.00 0.00 45.1 55.0 0.020 0.0
1/19/21 - 0600 47.3 44.2 31 18.4 36.6 NNE | 15 6.4 19.3 NNE | 24 0 0.0 0.00 0.00 45.1 55.0 0.018 0.0
1/19/21 - 0500 48.6 44.7 29 18.0 37.2 NNE | 27 8.9 19.5 NE | 48 0 0.0 0.00 0.00 47.6 55.0 0.016 0.0
1/19/21 - 0400 49.4 44.4 28 17.4 37.5 NE | 53 13.0 26.5 NE | 48 0 0.0 0.00 0.00 48.5 55.0 0.014 0.0
1/19/21 - 0300 50.0 44.8 27 17.4 37.8 ENE | 59 14.3 28.5 ENE | 58 0 0.0 0.00 0.00 49.1 55.0 0.011 0.0
1/19/21 - 0200 51.7 - 24 16.0 38.4 NE | 50 20.1 34.8 NE | 36 0 0.0 0.00 0.00 50.6 55.0 0.008 0.0
1/19/21 - 0100 53.8 - 21 14.5 39.2 NE | 43 21.4 39.9 NE | 54 0 0.0 0.00 0.00 52.1 55.0 0.004 0.0
1/19/21 - 0000 56.4 - 17 12.5 40.1 NE | 48 20.6 44.1 NE | 53 0 0.0 0.00 0.00 42.6 72.1 0.153 0.0
1/18/21 - 2300 57.9 - 19 15.3 41.3 NE | 41 12.9 30.0 NNE | 33 0 0.0 0.00 0.00 42.6 72.1 0.148 0.0
1/18/21 - 2200 59.1 - 18 15.3 41.8 ENE | 60 10.4 20.2 ENE | 57 0 0.0 0.00 0.00 42.6 72.1 0.144 0.0
1/18/21 - 2100 60.5 - 17 14.8 42.4 NE | 48 9.7 19.3 ENE | 60 0 0.0 0.00 0.00 42.6 72.1 0.141 0.0
1/18/21 - 2000 62.2 - 15 13.7 42.9 NNE | 32 10.7 23.7 ENE | 60 0 0.0 0.00 0.00 42.6 72.1 0.137 0.0
1/18/21 - 1900 61.6 - 17 15.9 43.1 NE | 46 9.4 21.5 NE | 34 0 0.0 0.00 0.00 42.6 72.1 0.132 0.0
1/18/21 - 1800 62.9 - 16 15.3 43.5 E | 79 5.9 15.3 E | 85 3 0.0 0.00 0.00 42.6 72.1 0.128 0.0
1/18/21 - 1700 66.7 - 15 17.8 45.6 E | 80 10.7 19.1 ENE | 71 94 0.0 0.00 0.00 42.6 72.1 0.126 0.0
Max 66.7 48.3 82 28.2 45.6 - 21.4 44.1 - 464 0.0 0.00 0.00 52.1 72.1 0.153 0.0
Avg 50.7 44.8 32 18.3 38.1 - 7.8 16.9 - 114 0.0 0.00 - - - - -
Min 26.5 43.3 15 12.5 24.8 - 0.5 2.0 - 0 0.0 0.00 0.00 25.9 46.7 0.000 0.0
Total - - - - - - - - - - - 0.00 - - - - -

Last 30 Days

Kelseyville

Daily Data | America/Los_Angeles
as of 1/20/21 5:24 PM PST
Date Daily Max Temp (°F) Time of Max Temp Daily Min Temp (°F) Time of Min Temp Daily Rain (In) Monthly Rain (In) Seasonal Rainfall (In) Wind Spd (mph) Daily Max Wind (mph) Time of Max Wind Max Wind Dir (°) Daily ETo (in) 7 Day ETo (in) Daily Solar Rad (Cal/cm2) Dew Pt (°F) Max RH (%) Min RH (%) Daily Leaf Wet Hrs (hrs) Hrs 70-85F (hrs) Hrs > 95F (hrs) GDDs (DL) GDDs (Mx/Mn) Hrs <= 32F (hrs) Hrs <= 28F (hrs) Chilling <=45F (hrs) Chill Hrs 32-45F (hrs) Utah Chilling (Units) Chilling <=45F Seas (hrs) Chill Hrs 32-45 Seas (hrs) Utah Chilling Seas (Units) Degree Hrs (hrs) Bee Hrs Today (Hrs) Bat Volt Min Day (V)
1/19/21 60.5 1356 45.1 0545 0.00 0.89 3.63 11.1 39.9 0003 NE | 54 0.147 0.51 239 16.3 36 14 0.0 0.00 0.00 3.7 2.8 0.0 0.0 0.0 0.0 9.0 1,006 656 821 0.0 4.1 12.5
1/18/21 72.1 1419 42.6 0106 0.00 0.89 3.63 8.0 44.1 2351 NE | 53 0.153 0.38 242 21.0 92 8 0.0 4.50 0.00 11.1 7.4 0.0 0.0 1.6 1.6 -6.5 1,006 656 813 35.5 8.7 12.5
1/17/21 75.9 1552 34.4 0803 0.00 0.89 3.63 1.2 6.8 1222 NNW | 345 0.051 0.25 228 41.7 100 27 9.5 2.82 0.00 5.6 5.2 0.0 0.0 9.0 9.0 8.0 1,004 654 819 26.1 6.6 12.5
1/16/21 71.9 1504 37.2 0659 0.00 0.89 3.63 1.4 7.5 1306 NNE | 24 0.052 0.22 215 42.6 100 31 7.6 1.70 0.00 5.5 4.5 0.0 0.0 8.5 8.5 8.0 995 645 812 17.4 6.8 12.5
1/15/21 67.7 1436 34.7 0747 0.00 0.89 3.63 1.5 9.2 1956 NNE | 14 0.045 0.22 187 42.0 100 35 10.6 0.00 0.00 3.7 1.2 0.0 0.0 9.3 9.3 10.0 987 637 805 2.1 5.0 12.5
1/14/21 62.0 1622 40.3 2359 0.01 0.89 3.63 1.3 7.0 1223 NNE | 12 0.032 0.22 156 47.0 100 53 15.8 0.00 0.00 1.6 1.1 0.0 0.0 2.8 2.8 12.5 977 627 796 0.0 2.9 12.6
1/13/21 63.8 1502 42.5 2211 0.01 0.88 3.62 1.4 7.7 1241 N | 6 0.037 0.22 158 50.8 100 74 17.3 0.00 0.00 3.6 3.2 0.0 0.0 1.0 1.0 7.5 975 624 784 0.0 7.5 12.5
1/12/21 49.5 1631 39.5 0053 0.02 0.87 3.61 1.0 5.9 1216 NNE | 22 0.013 0.20 49 45.1 100 86 23.7 0.00 0.00 0.0 0.0 0.0 0.0 9.2 9.2 17.0 974 624 778 0.0 0.0 12.5
1/11/21 50.4 1454 34.3 0100 0.00 0.85 3.59 2.2 9.0 1502 NE | 53 0.024 0.21 138 42.5 100 78 13.7 0.00 0.00 0.1 0.0 0.0 0.0 18.7 18.7 21.5 964 614 761 0.0 0.0 12.5
1/10/21 50.4 1553 32.7 0206 0.03 0.85 3.59 1.7 8.6 0949 W | 275 0.021 0.22 110 40.1 100 80 13.7 0.00 0.00 0.1 0.0 0.0 0.0 15.6 15.6 19.0 946 596 396 0.0 0.0 12.5
1/9/21 57.0 1456 27.0 0620 0.00 0.82 3.56 1.4 8.3 1354 NE | 53 0.044 0.22 233 33.6 100 38 9.8 0.00 0.00 1.8 0.0 7.8 1.3 16.7 8.9 6.5 930 580 378 0.0 3.2 12.5
1/8/21 56.2 1519 31.7 2314 0.17 0.82 3.56 2.7 18.8 1659 ENE | 67 0.051 0.19 216 40.0 100 37 14.3 0.00 0.00 1.3 0.0 0.1 0.0 13.4 13.4 0.0 913 571 372 0.0 1.9 12.5
1/7/21 50.7 1419 39.0 0646 0.03 0.65 3.39 1.6 13.2 2248 WNW | 292 0.031 0.18 160 40.8 100 66 11.6 0.00 0.00 16.6 0.0 0.0 0.0 18.6 18.6 22.5 900 558 372 0.0 0.0 12.5
1/6/21 47.6 1327 30.2 0353 0.15 0.62 3.36 1.4 15.6 1037 WNW | 288 0.014 0.18 73 39.3 100 86 23.6 0.00 0.00 28.0 0.0 2.8 0.0 21.6 18.8 16.0 881 539 350 0.0 0.0 12.5
1/5/21 78.0 1824 28.9 0533 0.00 0.47 3.21 1.4 7.9 1214 N | 1 0.027 0.22 163 36.9 100 62 14.5 0.00 0.00 6.7 3.4 4.8 0.0 20.0 15.2 14.0 860 520 336 0.0 0.0 12.5
1/4/21 53.2 1058 35.3 2311 0.40 0.47 3.21 4.9 27.2 1324 SW | 232 0.032 0.23 129 44.1 100 68 16.3 0.00 0.00 0.6 0.0 0.0 0.0 5.7 5.7 19.0 840 505 322 0.0 0.0 12.5
1/3/21 54.3 1431 42.6 0101 0.01 0.07 2.81 1.2 8.1 1014 NNE | 20 0.024 0.24 116 45.4 100 77 17.0 0.00 0.00 0.7 0.0 0.0 0.0 11.2 11.2 20.0 834 499 304 0.0 0.0 12.5
1/2/21 49.9 1403 42.7 2334 0.02 0.06 2.80 1.1 7.2 1423 NNW | 337 0.016 0.25 62 44.6 100 84 16.7 0.00 0.00 0.1 0.0 0.0 0.0 13.5 13.5 22.0 823 488 286 0.0 0.0 12.5
1/1/21 54.3 1552 28.0 0755 0.04 0.04 2.78 1.7 10.5 1547 SW | 215 0.033 0.27 183 36.1 100 47 16.1 0.00 0.00 4.1 0.0 8.7 0.1 12.2 3.5 12.5 809 475 264 0.0 0.0 12.5
12/31/20 56.6 1902 30.2 0738 0.00 2.29 2.74 1.6 10.1 0014 NW | 304 0.036 0.26 194 36.6 100 59 13.7 0.00 0.00 1.7 0.0 2.6 0.0 17.2 14.5 0.0 797 471 253 0.0 0.0 12.5
12/30/20 59.4 1337 23.8 0238 0.05 2.29 2.74 3.0 21.0 2254 W | 276 0.047 0.28 183 32.5 97 21 8.6 0.00 0.00 0.9 0.0 8.3 4.9 10.8 2.5 8.0 780 457 253 0.0 1.5 12.5
12/29/20 55.0 1617 23.9 0732 0.00 2.24 2.69 1.4 6.4 1058 NNW | 346 0.043 0.27 234 29.3 100 35 10.3 0.00 0.00 0.6 0.0 12.8 7.9 18.0 5.2 0.0 769 454 246 0.0 0.0 12.5
12/28/20 56.0 1456 29.7 0609 0.00 2.24 2.69 1.8 8.8 1341 NE | 50 0.043 0.27 219 33.0 99 40 11.9 0.00 0.00 0.7 0.0 6.4 0.0 17.2 10.8 0.0 751 449 246 0.0 1.2 12.5
12/27/20 52.7 1444 30.2 0144 0.00 2.24 2.69 2.3 21.0 1511 ENE | 73 0.035 0.27 168 33.9 100 43 12.2 0.00 0.00 0.1 0.0 6.7 0.0 18.8 12.1 14.0 734 438 246 0.0 0.0 12.6
12/26/20 53.8 1444 31.6 2358 0.13 2.24 2.69 2.8 18.2 0101 SW | 219 0.032 0.28 144 40.1 100 55 14.6 0.00 0.00 0.3 0.0 0.1 0.0 10.1 10.0 0.0 715 426 233 0.0 0.0 12.4
12/25/20 52.7 1015 41.0 0300 0.22 2.11 2.56 3.0 20.0 1127 SE | 146 0.019 0.29 47 40.0 98 46 13.2 0.00 0.00 0.2 0.0 0.0 0.0 2.4 2.4 17.5 705 416 233 0.0 0.0 12.5
12/24/20 61.6 1450 28.8 0406 0.00 1.89 2.34 3.0 16.9 1356 E | 80 0.057 0.31 195 27.2 82 22 0.0 0.00 0.00 2.0 0.0 1.4 0.0 10.0 8.6 3.5 703 414 216 0.0 4.9 12.4
12/23/20 57.9 1442 21.7 0624 0.00 1.89 2.34 1.5 11.6 1703 E | 84 0.046 0.30 237 24.7 99 21 8.2 0.00 0.00 1.0 0.0 11.3 9.0 17.7 6.3 0.0 693 405 214 0.0 2.9 12.5
12/22/20 56.8 1514 26.3 2349 0.00 1.89 2.34 1.5 13.6 0038 W | 276 0.043 0.26 231 33.0 100 32 12.2 0.00 0.00 0.8 0.0 6.9 1.2 15.8 9.0 0.0 675 399 214 0.0 1.6 12.5
12/21/20 61.0 1517 26.3 0739 0.00 1.89 2.34 1.9 15.1 2311 W | 264 0.043 0.26 222 35.9 100 41 11.1 0.00 0.00 1.5 0.0 8.5 3.7 12.8 4.3 5.5 659 390 214 0.0 3.5 12.4
Max 78.0 - 45.1 - 0.40 2.29 - 11.1 44.1 - - 0.153 - 242 50.8 100 86 23.7 4.50 0.00 28.0 7.4 12.8 9.0 21.6 18.8 22.5 - - - 35.5 8.7 12.6
Avg - - - - - 1.20 - 2.4 - - - - - - 37.2 - - - 0.30 0.00 3.5 1.0 3.0 0.9 12.0 9.0 9.6 - - - - 2.1 -
Min 47.6 - 21.7 - 0.00 0.04 - 1.0 5.9 - - 0.013 - 47 16.3 36 8 0.0 0.00 0.00 0.0 0.0 0.0 0.0 0.0 0.0 -6.5 - - - 0.0 0.0 12.4
Total - - - - - - - - - - - - - - - - - - 9.02 0.00 104.9 28.8 89.2 28.2 359.5 270.4 287.0 - - - - 62.3 -

Climate Summary

Kelseyville

Current Year | Showing 1/1/21 - 1/19/21
as of 1/20/21 5:24 PM PST
Temperature (°F) Precip (in) Days
Month Days Avg Max Avg Min Max Max Min Min Total Daily Min Temp < 28 Daily Min Temp < 32 Daily Max Temp > 90 Daily Max Temp > 100 Daily Rain > 0.01 Daily Rain > 0.1
Jan 2021 19 59.2 36.2 78 27 0.89 2 5 0 0 8 3

Climate Summary

Kelseyville

Last Year | Showing 1/1/20 - 12/31/20
as of 1/20/21 5:24 PM PST
Temperature (°F) Precip (in) Days
Month Days Avg Max Avg Min Max Max Min Min Total Daily Min Temp < 28 Daily Min Temp < 32 Daily Max Temp > 90 Daily Max Temp > 100 Daily Rain > 0.01 Daily Rain > 0.1
Jan 2020 31 56.8 32.8 72.6 22.6 2.01 7 19 0 0 9 4
Feb 2020 29 68.7 29.5 83.1 22 0 9 23 0 0 0 0
Mar 2020 31 61.7 34 83.7 27.2 1.31 2 8 0 0 8 6
Apr 2020 30 72 40.9 86.9 28.3 0.76 0 3 0 0 6 3
May 2020 31 77.7 43.8 96.6 32.3 0.83 0 0 7 0 6 2
Jun 2020 30 86.8 50.1 103.8 36 0 0 0 14 3 0 0
Jul 2020 31 93.9 51.4 99.3 42.6 0 0 0 28 0 0 0
Aug 2020 31 94.7 54.3 103.3 45 0.04 0 0 28 4 1 0
Sep 2020 30 89.6 47.4 108.4 38.6 0 0 0 13 3 0 0
Oct 2020 31 84.8 39.3 96.2 29.4 3.62 0 3 11 0 1 1
Nov 2020 30 63.6 29.2 83.4 20.4 0.41 14 21 0 0 3 1
Dec 2020 31 58.4 28.5 71.3 21.7 2.29 18 26 0 0 8 5
Total 366 - - - - 11.27 50 103 101 10 42 22
Average 30.5 75.7 40.1 - - 0.94 4.2 8.6 8.4 0.8 3.5 1.8
Maximum 31 94.7 54.3 108.4 - 3.62 18 26 28 4 9 6
Minimum 29 56.8 28.5 - 20.4 0 0 0 0 0 0 0
Calm: 1.0%
Calm: 0.3%